Broadgate — D5OH5 — position and weather

sailwx.info

Track history (hours):
 
Tides and Currents Weather Stations Pressure Air Temp Water Temp Dewpoint Dewpoint Depression Visibility Wind Speed Wind Dir Waves Ship Positions

Broadgate

Last reported at 2018-May-15 00:21 UTC. Time now 2018-Jun-25 11:29 UTC.
Position S 28°08' E 154°08'.
Warning: this ship's position is 41 days out of date.

Length 180 m; draft 10 m.

Type: Cargo ship. MMSI: 636018128.

Date/timePositionNaut miles runAvg speedWind from/ knotsBaromVisibWave heightAir tempDewpointWater temp
2018-May-15 00:21S 28°08' E 154°08'26712.8
2018-May-14 03:29S 32°25' E 152°43'612.0
2018-May-14 02:58S 32°31' E 152°41'512.1
2018-May-14 02:31S 32°36' E 152°38'612.7
2018-May-14 02:00S 32°41' E 152°34'612.7
2018-May-14 01:30S 32°48' E 152°33'613.0
2018-May-14 01:00S 32°54' E 152°30'713.0
2018-May-14 00:30S 32°60' E 152°27'712.2
2018-May-13 23:54S 33°07' E 152°24'411.4
2018-May-13 23:30S 33°11' E 152°22'3911.7
2018-May-13 20:08S 33°47' E 152°03'612.8
2018-May-13 19:38S 33°53' E 152°00'212.9
2018-May-13 19:30S 33°55' E 151°60'612.4
2018-May-13 19:01S 34°00' E 151°57'712.9
2018-May-13 18:27S 34°07' E 151°54'612.9
2018-May-13 17:59S 34°12' E 151°51'  
2018-May-09 12:27S 35°22' E 138°05'  
2018-May-06 11:22S 34°49' E 138°16'0 0.0
2018-May-06 10:58S 34°49' E 138°16'  
Track history (hours):
 
Tides and Currents Weather Stations Pressure Air Temp Water Temp Dewpoint Dewpoint Depression Visibility Wind Speed Wind Dir Waves Ship Positions

Broadgate

Last reported at 2018-May-15 00:21 UTC. Time now 2018-Jun-25 11:29 UTC.
Position S 28°08' E 154°08'.
Warning: this ship's position is 41 days out of date.

Length 180 m; draft 10 m.

Type: Cargo ship. MMSI: 636018128.

Date/timePositionNaut miles runAvg speedWind from/ knotsBaromVisibWave heightAir tempDewpointWater temp
2018-May-15 00:21S 28°08' E 154°08'26712.8
2018-May-14 03:29S 32°25' E 152°43'612.0
2018-May-14 02:58S 32°31' E 152°41'512.1
2018-May-14 02:31S 32°36' E 152°38'612.7
2018-May-14 02:00S 32°41' E 152°34'612.7
2018-May-14 01:30S 32°48' E 152°33'613.0
2018-May-14 01:00S 32°54' E 152°30'713.0
2018-May-14 00:30S 32°60' E 152°27'712.2
2018-May-13 23:54S 33°07' E 152°24'411.4
2018-May-13 23:30S 33°11' E 152°22'3911.7
2018-May-13 20:08S 33°47' E 152°03'612.8
2018-May-13 19:38S 33°53' E 152°00'212.9
2018-May-13 19:30S 33°55' E 151°60'612.4
2018-May-13 19:01S 34°00' E 151°57'712.9
2018-May-13 18:27S 34°07' E 151°54'612.9
2018-May-13 17:59S 34°12' E 151°51'  
2018-May-09 12:27S 35°22' E 138°05'  
2018-May-06 11:22S 34°49' E 138°16'0 0.0
2018-May-06 10:58S 34°49' E 138°16'  

Dump ship's entire track history